Time;durP1;ratioP1;P1;durP2;ratioP2;P2;SDS_P1;SDS_P2;PMS_P1;PMS_P2;Temp;Humidity;BMP_temperature;BMP_pressure;BME280_temperature;BME280_humidity;BME280_pressure;Samples;Min_cycle;Max_cycle;Signal;HPM_P1;HPM_P2
2022/07/21 00:01:01;;;;;;;4.00;2.42;;;25.90;58.00;;;;;;5114773;27;20076;-71
2022/07/21 00:03:27;;;;;;;3.03;2.75;;;25.90;58.00;;;;;;5097863;28;20035;-71
2022/07/21 00:05:52;;;;;;;3.60;2.65;;;25.90;58.10;;;;;;5132962;27;20059;-71
2022/07/21 00:08:18;;;;;;;3.30;2.60;;;25.90;58.10;;;;;;5114420;28;20035;-71
2022/07/21 00:10:44;;;;;;;2.83;2.33;;;25.90;58.20;;;;;;5114763;27;20043;-71
2022/07/21 00:13:09;;;;;;;4.05;3.22;;;25.90;58.20;;;;;;5114398;28;20483;-71
2022/07/21 00:15:35;;;;;;;3.60;2.67;;;25.80;58.10;;;;;;5114676;28;20562;-71
2022/07/21 00:18:00;;;;;;;2.53;2.33;;;25.90;58.20;;;;;;5114665;28;20039;-71
2022/07/21 00:28:36;;;;;;;2.78;2.55;;;25.80;58.30;;;;;;5132721;28;20040;-71
2022/07/21 00:31:02;;;;;;;2.85;2.05;;;25.80;58.30;;;;;;5132676;28;20046;-71
2022/07/21 00:33:27;;;;;;;2.78;2.55;;;25.80;58.30;;;;;;5132635;28;20040;-72
2022/07/21 00:35:53;;;;;;;3.10;2.55;;;25.80;58.40;;;;;;5114472;28;20031;-72
2022/07/21 00:38:19;;;;;;;3.42;2.28;;;25.80;58.50;;;;;;5114550;28;20495;-72
2022/07/21 00:40:44;;;;;;;3.95;3.00;;;25.80;58.50;;;;;;5114370;28;20070;-71
2022/07/21 00:43:10;;;;;;;3.95;2.95;;;25.80;58.50;;;;;;5114268;28;20464;-72
2022/07/21 00:45:36;;;;;;;3.58;3.17;;;25.80;58.50;;;;;;5114214;28;20043;-72
2022/07/21 00:48:02;;;;;;;3.72;3.25;;;25.80;58.60;;;;;;5132619;28;20035;-71
2022/07/21 00:50:28;;;;;;;3.95;3.13;;;25.80;58.60;;;;;;5132580;28;20079;-71
2022/07/21 00:52:53;;;;;;;2.83;2.38;;;25.80;58.60;;;;;;5114208;28;20035;-71
2022/07/21 00:55:21;;;;;;;2.88;2.67;;;25.80;58.70;;;;;;5114420;28;20039;-71
2022/07/21 00:57:51;;;;;;;3.22;2.38;;;25.80;58.70;;;;;;5132673;28;20399;-71
2022/07/21 01:00:20;;;;;;;3.90;2.60;;;25.80;58.70;;;;;;5114335;28;20035;-72
2022/07/21 01:02:46;;;;;;;3.10;2.80;;;25.80;58.80;;;;;;5113976;28;20164;-72
2022/07/21 01:05:14;;;;;;;2.40;2.20;;;25.70;58.70;;;;;;5114211;28;20122;-72
2022/07/21 01:07:43;;;;;;;2.80;2.45;;;25.70;58.80;;;;;;5132350;28;20034;-72
2022/07/21 01:10:10;;;;;;;2.60;2.40;;;25.70;58.80;;;;;;5114279;28;20066;-72
2022/07/21 01:12:36;;;;;;;3.03;2.38;;;25.70;58.80;;;;;;5113879;28;20042;-71
2022/07/21 01:15:05;;;;;;;2.75;2.55;;;25.70;58.90;;;;;;5113499;28;20043;-71
2022/07/21 01:17:32;;;;;;;2.72;2.20;;;25.70;58.90;;;;;;5132238;28;20043;-72
2022/07/21 01:19:57;;;;;;;3.65;2.85;;;25.70;58.90;;;;;;5113746;28;20043;-71
2022/07/21 01:22:23;;;;;;;2.50;2.30;;;25.70;59.00;;;;;;5117310;27;20166;-72
2022/07/21 01:24:49;;;;;;;2.83;2.33;;;25.70;59.00;;;;;;5135972;27;20333;-71
2022/07/21 01:27:14;;;;;;;2.38;2.17;;;25.70;59.00;;;;;;5117432;27;20088;-72
2022/07/21 01:29:40;;;;;;;3.50;2.95;;;25.70;59.00;;;;;;5135950;27;20039;-72
2022/07/21 01:32:06;;;;;;;2.78;2.53;;;25.70;59.00;;;;;;5117383;27;20039;-72
2022/07/21 01:34:31;;;;;;;4.13;2.67;;;25.70;59.10;;;;;;5117271;27;20111;-71
2022/07/21 01:36:57;;;;;;;5.15;2.95;;;25.70;59.10;;;;;;5117559;27;20035;-72
2022/07/21 01:42:08;;;;;;;3.22;2.58;;;25.70;59.20;;;;;;5117019;27;20508;-71
2022/07/21 01:44:34;;;;;;;2.78;2.50;;;25.60;59.10;;;;;;5117106;27;20043;-72
2022/07/21 01:46:59;;;;;;;3.70;2.72;;;25.60;59.10;;;;;;5117220;27;20039;-71
2022/07/21 01:49:28;;;;;;;4.55;3.03;;;25.60;59.20;;;;;;5117400;27;20039;-71
2022/07/21 01:51:54;;;;;;;3.00;2.70;;;25.60;59.20;;;;;;5116890;27;20046;-72
2022/07/21 01:54:19;;;;;;;2.88;2.55;;;25.60;59.20;;;;;;5117022;27;20036;-72
2022/07/21 01:56:45;;;;;;;3.67;2.70;;;25.60;59.20;;;;;;5117260;27;20027;-72
2022/07/21 01:59:10;;;;;;;2.72;2.50;;;25.60;59.20;;;;;;5116884;27;20363;-72
2022/07/21 02:01:36;;;;;;;3.15;2.80;;;25.60;59.30;;;;;;5116913;27;20046;-72
2022/07/21 02:04:04;;;;;;;3.10;2.63;;;25.60;59.30;;;;;;5116732;27;20039;-72
2022/07/21 02:06:30;;;;;;;3.10;2.78;;;25.60;59.40;;;;;;5135197;27;20046;-72
2022/07/21 02:08:56;;;;;;;2.63;2.40;;;25.60;59.40;;;;;;5116712;27;20040;-71
2022/07/21 02:11:21;;;;;;;3.03;2.78;;;25.50;59.30;;;;;;5116522;27;20107;-72
2022/07/21 02:13:48;;;;;;;2.72;2.50;;;25.50;59.30;;;;;;5116273;27;20096;-72
2022/07/21 02:16:14;;;;;;;4.50;2.92;;;25.60;59.40;;;;;;5116516;27;20035;-72
2022/07/21 02:18:41;;;;;;;2.85;2.55;;;25.60;59.40;;;;;;5116452;27;20070;-72
2022/07/21 02:21:06;;;;;;;2.88;2.60;;;25.60;59.40;;;;;;5134845;27;20118;-73
2022/07/21 02:23:33;;;;;;;2.72;2.53;;;25.60;59.40;;;;;;5116384;27;20447;-72
2022/07/21 02:25:59;;;;;;;3.00;2.72;;;25.60;59.40;;;;;;5116374;27;20546;-72
2022/07/21 02:28:28;;;;;;;2.60;2.40;;;25.50;59.30;;;;;;5116563;27;20043;-71
2022/07/21 02:30:54;;;;;;;2.78;2.58;;;25.60;59.40;;;;;;5116191;27;20043;-72
2022/07/21 02:33:21;;;;;;;2.55;2.25;;;25.50;60.10;;;;;;5116132;27;20039;-73
2022/07/21 02:35:49;;;;;;;2.58;2.28;;;25.50;59.40;;;;;;5116327;27;20039;-72
2022/07/21 02:38:15;;;;;;;3.17;2.35;;;25.50;59.40;;;;;;5116326;27;20104;-72
2022/07/21 02:40:41;;;;;;;3.22;2.60;;;25.50;59.40;;;;;;5116224;27;20031;-72
2022/07/21 02:43:07;;;;;;;3.22;2.60;;;25.50;59.50;;;;;;5134498;27;20550;-72
2022/07/21 02:45:33;;;;;;;3.33;2.53;;;25.50;59.50;;;;;;5116248;27;20126;-72
2022/07/21 02:48:03;;;;;;;3.30;2.60;;;25.50;59.50;;;;;;5115992;27;20047;-72
2022/07/21 02:50:33;;;;;;;3.35;3.05;;;25.50;59.50;;;;;;5115851;27;20470;-72
2022/07/21 02:53:01;;;;;;;2.50;2.30;;;25.50;59.50;;;;;;5115950;27;20053;-72
2022/07/21 02:55:27;;;;;;;2.95;2.65;;;25.50;60.30;;;;;;5115972;27;20031;-72
2022/07/21 02:58:15;;;;;;;2.72;2.53;;;25.50;60.30;;;;;;5115727;27;20043;-72
2022/07/21 03:00:50;;;;;;;3.20;2.90;;;25.50;59.60;;;;;;5115477;27;20035;-72
2022/07/21 03:03:16;;;;;;;3.47;2.72;;;25.50;59.60;;;;;;5115568;27;20046;-72
2022/07/21 03:05:42;;;;;;;3.15;2.30;;;25.50;59.60;;;;;;5115810;27;20039;-73
2022/07/21 03:08:09;;;;;;;4.43;3.00;;;25.50;59.60;;;;;;5115525;27;20039;-73
2022/07/21 03:10:35;;;;;;;3.17;2.97;;;25.50;59.60;;;;;;5115770;27;20039;-72
2022/07/21 03:13:01;;;;;;;2.53;2.33;;;25.50;59.60;;;;;;5114999;27;20054;-72
2022/07/21 03:15:27;;;;;;;2.97;2.67;;;25.50;59.70;;;;;;5115362;27;20043;-72
2022/07/21 03:17:54;;;;;;;3.22;2.92;;;25.50;59.70;;;;;;5133553;27;20035;-73
2022/07/21 03:20:21;;;;;;;3.60;3.30;;;25.50;59.70;;;;;;5115215;27;20486;-73
2022/07/21 03:22:47;;;;;;;3.35;3.00;;;25.40;59.60;;;;;;5115187;27;20031;-72
2022/07/21 03:25:13;;;;;;;3.35;3.05;;;25.50;59.70;;;;;;5115149;27;20039;-72
2022/07/21 03:27:41;;;;;;;3.45;3.13;;;25.40;59.70;;;;;;5133493;27;20043;-72
2022/07/21 03:30:08;;;;;;;2.85;2.65;;;25.40;59.70;;;;;;5115368;27;20108;-72
2022/07/21 03:32:34;;;;;;;3.47;3.08;;;25.40;59.70;;;;;;5133473;27;20092;-73
2022/07/21 03:35:00;;;;;;;3.47;3.17;;;25.40;59.70;;;;;;5133399;27;20038;-73
2022/07/21 03:37:26;;;;;;;3.63;3.33;;;25.40;59.70;;;;;;5133395;27;20058;-73
2022/07/21 03:39:52;;;;;;;3.40;3.10;;;25.40;59.70;;;;;;5115223;27;20034;-72
2022/07/21 03:42:18;;;;;;;2.70;2.50;;;25.40;59.70;;;;;;5115081;27;20558;-73
2022/07/21 03:44:43;;;;;;;3.38;3.08;;;25.40;59.70;;;;;;5114752;27;20035;-73
2022/07/21 03:47:09;;;;;;;3.60;3.30;;;25.40;59.70;;;;;;5114876;27;20498;-73
2022/07/21 03:49:35;;;;;;;3.53;3.17;;;25.40;59.70;;;;;;5133995;27;20114;-72
2022/07/21 03:52:00;;;;;;;2.90;2.63;;;25.40;59.70;;;;;;5115178;27;20503;-72
2022/07/21 03:54:26;;;;;;;2.90;2.70;;;25.40;59.70;;;;;;5114867;28;20065;-72
2022/07/21 03:56:52;;;;;;;3.83;3.53;;;25.40;59.70;;;;;;5114647;28;20039;-72
2022/07/21 03:59:17;;;;;;;4.00;3.28;;;25.30;59.70;;;;;;5114745;27;20031;-72
2022/07/21 04:01:43;;;;;;;3.55;3.28;;;25.40;59.70;;;;;;5114938;27;20070;-72
2022/07/21 04:04:09;;;;;;;3.83;3.33;;;25.30;59.70;;;;;;5132843;27;20529;-72
2022/07/21 04:06:34;;;;;;;3.83;3.35;;;25.40;59.70;;;;;;5133245;27;20043;-73
2022/07/21 04:09:00;;;;;;;3.45;3.10;;;25.30;59.70;;;;;;5114781;27;20065;-72
2022/07/21 04:11:26;;;;;;;4.15;3.58;;;25.30;59.70;;;;;;5114759;27;20055;-72
2022/07/21 04:13:51;;;;;;;4.13;3.50;;;25.40;59.70;;;;;;5132555;27;20561;-73
2022/07/21 04:16:17;;;;;;;3.55;3.25;;;25.30;59.70;;;;;;5114501;28;20081;-73
2022/07/21 04:18:43;;;;;;;4.03;3.63;;;25.30;59.70;;;;;;5114426;28;20040;-72
2022/07/21 04:21:08;;;;;;;3.67;3.38;;;25.30;59.80;;;;;;5114596;28;20031;-72
2022/07/21 04:23:34;;;;;;;3.33;3.03;;;25.30;59.70;;;;;;5114677;28;20475;-72
2022/07/21 04:26:00;;;;;;;4.55;3.63;;;25.30;59.70;;;;;;5132777;28;20039;-72
2022/07/21 04:28:25;;;;;;;3.60;3.30;;;25.30;59.70;;;;;;5114339;28;20031;-71
2022/07/21 04:30:51;;;;;;;3.78;3.42;;;25.30;59.70;;;;;;5132693;28;20176;-72
2022/07/21 04:33:17;;;;;;;3.75;3.45;;;25.30;59.70;;;;;;5114385;28;20042;-73
2022/07/21 04:35:42;;;;;;;3.50;3.20;;;25.30;59.70;;;;;;5114434;28;20031;-73
2022/07/21 04:38:10;;;;;;;3.40;3.10;;;25.30;59.80;;;;;;5114349;28;20379;-72
2022/07/21 04:40:36;;;;;;;3.55;3.25;;;25.30;59.70;;;;;;5132615;28;20492;-72
2022/07/21 04:43:02;;;;;;;3.50;3.20;;;25.30;59.80;;;;;;5132691;28;20547;-72
2022/07/21 04:45:28;;;;;;;3.10;2.80;;;25.30;59.80;;;;;;5114408;28;20058;-72
2022/07/21 04:47:55;;;;;;;3.80;3.50;;;25.30;59.80;;;;;;5132597;28;20043;-71
2022/07/21 04:50:24;;;;;;;3.95;3.63;;;25.30;59.80;;;;;;5132413;28;20474;-72
2022/07/21 04:52:50;;;;;;;3.72;3.35;;;25.30;59.80;;;;;;5132457;28;20036;-72
2022/07/21 04:55:16;;;;;;;3.78;3.45;;;25.30;59.80;;;;;;5114428;27;20124;-72
2022/07/21 04:57:46;;;;;;;4.88;4.25;;;25.30;59.80;;;;;;5118139;27;20046;-72
2022/07/21 05:00:15;;;;;;;3.78;3.47;;;25.30;59.90;;;;;;5118277;27;20047;-71
2022/07/21 05:02:41;;;;;;;4.32;3.92;;;25.30;59.80;;;;;;5118331;27;20031;-72
2022/07/21 05:05:07;;;;;;;4.25;3.85;;;25.30;59.80;;;;;;5136182;27;20440;-72
2022/07/21 05:07:33;;;;;;;3.92;3.63;;;25.30;59.90;;;;;;5118164;27;20103;-72
2022/07/21 05:09:59;;;;;;;5.07;3.90;;;25.20;59.80;;;;;;5136205;27;20047;-72
2022/07/21 05:12:25;;;;;;;4.32;3.92;;;25.20;59.80;;;;;;5118086;27;20035;-72
2022/07/21 05:14:51;;;;;;;4.38;3.97;;;25.20;59.80;;;;;;5117679;27;20513;-72
2022/07/21 05:17:17;;;;;;;4.70;3.85;;;25.30;59.90;;;;;;5117737;27;20039;-72
2022/07/21 05:19:49;;;;;;;4.07;3.78;;;25.30;59.90;;;;;;5117506;27;20042;-72
2022/07/21 05:22:16;;;;;;;4.00;3.67;;;25.20;59.80;;;;;;5117886;27;20383;-72
2022/07/21 05:24:42;;;;;;;4.22;3.85;;;25.20;59.90;;;;;;5117547;27;20047;-72
2022/07/21 05:27:08;;;;;;;4.20;3.80;;;25.20;59.80;;;;;;5117856;27;20046;-72
2022/07/21 05:29:33;;;;;;;4.45;4.05;;;25.20;59.80;;;;;;5117761;27;20038;-72
2022/07/21 05:31:59;;;;;;;3.65;3.35;;;25.20;59.80;;;;;;5117440;27;20043;-72
2022/07/21 05:34:25;;;;;;;4.10;3.75;;;25.20;59.90;;;;;;5117288;27;20049;-72
2022/07/21 05:36:52;;;;;;;3.90;3.60;;;25.20;59.80;;;;;;5135675;27;20039;-72
2022/07/21 05:39:18;;;;;;;4.65;4.15;;;25.20;59.90;;;;;;5117610;27;20150;-72
2022/07/21 05:41:44;;;;;;;4.05;3.65;;;25.20;59.90;;;;;;5117294;27;20547;-72
2022/07/21 05:44:10;;;;;;;4.15;3.75;;;25.20;59.90;;;;;;5135648;27;20050;-72
2022/07/21 05:46:41;;;;;;;4.25;3.85;;;25.20;59.80;;;;;;5117380;27;20043;-72
2022/07/21 05:49:07;;;;;;;4.15;3.67;;;25.20;59.90;;;;;;5135452;27;20035;-72
2022/07/21 05:51:32;;;;;;;4.00;3.60;;;25.20;59.80;;;;;;5117240;27;20043;-72
2022/07/21 05:53:58;;;;;;;4.35;3.95;;;25.20;59.90;;;;;;5117025;27;20043;-72
2022/07/21 05:56:24;;;;;;;4.88;4.25;;;25.20;59.90;;;;;;5117115;27;20039;-72
2022/07/21 05:58:49;;;;;;;4.13;3.83;;;25.20;59.90;;;;;;5135269;27;20054;-72
2022/07/21 06:01:16;;;;;;;4.70;4.30;;;25.20;59.90;;;;;;5116868;27;20398;-72
2022/07/21 06:03:46;;;;;;;4.50;3.50;;;25.20;59.90;;;;;;5117027;27;20043;-72
2022/07/21 06:06:13;;;;;;;4.10;3.70;;;25.20;59.90;;;;;;5116372;27;20092;-72
2022/07/21 06:08:40;;;;;;;4.80;4.40;;;25.20;59.90;;;;;;5135184;27;20039;-71
2022/07/21 06:11:08;;;;;;;5.10;4.57;;;25.20;59.90;;;;;;5135160;27;20035;-72
2022/07/21 06:13:34;;;;;;;4.25;3.85;;;25.20;60.00;;;;;;5116537;27;20447;-72
2022/07/21 06:16:00;;;;;;;4.53;4.13;;;25.20;60.00;;;;;;5135016;27;20542;-72
2022/07/21 06:18:25;;;;;;;4.40;4.00;;;25.10;59.90;;;;;;5116784;27;20065;-72
2022/07/21 06:20:51;;;;;;;3.65;3.35;;;25.20;60.00;;;;;;5134745;27;20398;-72
2022/07/21 06:23:17;;;;;;;4.32;3.58;;;25.10;60.00;;;;;;5134824;27;20077;-72
2022/07/21 06:25:44;;;;;;;4.50;4.10;;;25.20;60.00;;;;;;5116620;27;20035;-72
2022/07/21 06:28:09;;;;;;;4.30;3.90;;;25.20;60.00;;;;;;5116280;27;20047;-72
2022/07/21 06:30:35;;;;;;;4.95;4.53;;;25.10;60.00;;;;;;5116430;27;20096;-72
2022/07/21 06:33:01;;;;;;;4.72;4.43;;;25.10;60.00;;;;;;5116105;27;20035;-72
2022/07/21 06:35:26;;;;;;;4.95;4.55;;;25.10;60.00;;;;;;5134601;27;20066;-72
2022/07/21 06:37:52;;;;;;;4.50;4.20;;;25.10;60.00;;;;;;5134736;27;20039;-72
2022/07/21 06:40:18;;;;;;;4.80;4.40;;;25.20;60.00;;;;;;5116294;27;20185;-72
2022/07/21 06:42:44;;;;;;;3.83;3.53;;;25.10;60.00;;;;;;5116314;27;20516;-72
2022/07/21 06:45:09;;;;;;;4.65;4.25;;;25.10;60.00;;;;;;5116042;27;20047;-72
2022/07/21 06:47:35;;;;;;;4.68;4.28;;;25.10;60.00;;;;;;5134294;27;20031;-73
2022/07/21 06:50:02;;;;;;;4.93;4.45;;;25.10;60.00;;;;;;5115919;27;20591;-71
2022/07/21 06:52:29;;;;;;;4.72;4.25;;;25.10;60.00;;;;;;5115884;27;20066;-72
2022/07/21 06:54:55;;;;;;;5.85;5.05;;;25.10;60.00;;;;;;5115804;27;20047;-72
2022/07/21 06:57:21;;;;;;;5.22;4.38;;;25.10;60.00;;;;;;5115809;27;20050;-72
2022/07/21 06:59:46;;;;;;;4.22;3.83;;;25.10;60.00;;;;;;5115965;27;20127;-72
2022/07/21 07:02:12;;;;;;;4.95;4.55;;;25.10;60.00;;;;;;5115771;27;20063;-72
2022/07/21 07:04:38;;;;;;;4.70;4.28;;;25.10;60.00;;;;;;5115780;27;20035;-72
2022/07/21 07:07:03;;;;;;;4.20;3.85;;;25.10;60.00;;;;;;5133954;27;20470;-72
2022/07/21 07:09:29;;;;;;;4.43;4.03;;;25.10;60.00;;;;;;5134081;27;20087;-72
2022/07/21 07:12:03;;;;;;;5.07;4.68;;;25.10;60.00;;;;;;5133993;27;20031;-72
2022/07/21 07:14:29;;;;;;;4.88;4.50;;;25.10;60.00;;;;;;5115217;27;20050;-72
2022/07/21 07:16:55;;;;;;;4.03;3.72;;;25.10;60.00;;;;;;5115854;27;20088;-72
2022/07/21 07:19:20;;;;;;;4.97;4.57;;;25.10;60.00;;;;;;5133368;27;20424;-72
2022/07/21 07:21:46;;;;;;;4.03;3.72;;;25.10;60.00;;;;;;5098306;27;20063;-72
2022/07/21 07:24:12;;;;;;;4.75;4.45;;;25.00;60.00;;;;;;5115232;27;20159;-72
2022/07/21 07:26:37;;;;;;;5.45;4.95;;;25.10;60.00;;;;;;5115417;27;20046;-72
2022/07/21 07:29:05;;;;;;;4.25;3.85;;;25.10;60.00;;;;;;5133466;27;20035;-72
2022/07/21 07:31:31;;;;;;;4.95;4.45;;;25.10;60.00;;;;;;5115119;27;20035;-72
2022/07/21 07:33:57;;;;;;;4.95;4.55;;;25.10;60.00;;;;;;5115120;27;20043;-72
2022/07/21 07:36:25;;;;;;;4.57;4.25;;;25.10;60.00;;;;;;5114926;27;20035;-72
2022/07/21 07:38:52;;;;;;;4.80;4.40;;;25.10;60.00;;;;;;5115295;27;20601;-72
2022/07/21 07:41:19;;;;;;;4.40;3.92;;;25.10;60.00;;;;;;5098126;27;20043;-73
2022/07/21 07:43:46;;;;;;;5.10;4.70;;;25.10;59.90;;;;;;5133479;27;20035;-72
2022/07/21 07:46:12;;;;;;;5.28;4.88;;;25.10;59.90;;;;;;5114865;27;20054;-72
2022/07/21 07:48:41;;;;;;;4.90;4.50;;;25.10;59.90;;;;;;5134119;27;20035;-72
2022/07/21 07:51:08;;;;;;;4.93;4.53;;;25.20;59.90;;;;;;5115187;27;20043;-72
2022/07/21 07:53:34;;;;;;;5.47;4.97;;;25.20;59.90;;;;;;5114726;27;20036;-72
2022/07/21 07:56:01;;;;;;;5.35;4.85;;;25.20;59.90;;;;;;5114742;27;20043;-73
2022/07/21 07:58:27;;;;;;;5.03;4.63;;;25.20;59.90;;;;;;5114714;27;20039;-72
2022/07/21 08:00:53;;;;;;;5.13;4.72;;;25.20;59.90;;;;;;5132965;27;20035;-72
2022/07/21 08:03:19;;;;;;;5.55;5.05;;;25.20;59.90;;;;;;5114622;27;20035;-72
2022/07/21 08:05:45;;;;;;;5.82;5.20;;;25.10;59.80;;;;;;5114721;27;20038;-73
2022/07/21 08:08:11;;;;;;;5.78;5.28;;;25.10;59.80;;;;;;5114966;28;20441;-72
2022/07/21 08:10:37;;;;;;;5.05;4.57;;;25.10;59.80;;;;;;5114609;27;20035;-72
2022/07/21 08:13:03;;;;;;;6.00;5.50;;;25.10;59.80;;;;;;5132620;27;20142;-72
2022/07/21 08:15:29;;;;;;;6.07;5.40;;;25.20;59.80;;;;;;5133131;27;20078;-72
2022/07/21 08:17:54;;;;;;;5.93;5.50;;;25.10;59.70;;;;;;5114446;28;20100;-73
2022/07/21 08:20:20;;;;;;;5.95;5.50;;;25.10;59.70;;;;;;5114636;28;20075;-72
2022/07/21 08:22:45;;;;;;;5.57;5.18;;;25.20;59.80;;;;;;5114449;28;20050;-73
2022/07/21 08:25:11;;;;;;;6.07;5.47;;;25.10;59.70;;;;;;5132895;28;20123;-72
2022/07/21 08:27:38;;;;;;;6.07;5.55;;;25.10;59.70;;;;;;5114731;28;20107;-72
2022/07/21 08:30:07;;;;;;;5.90;5.40;;;25.10;59.70;;;;;;5134582;27;20046;-72
2022/07/21 08:32:37;;;;;;;5.13;4.72;;;25.10;59.70;;;;;;5118685;27;20066;-72
2022/07/21 08:35:08;;;;;;;5.88;5.47;;;25.20;59.70;;;;;;5118422;27;20410;-72
2022/07/21 08:37:37;;;;;;;5.82;5.32;;;25.20;59.70;;;;;;5118466;27;20538;-73
2022/07/21 08:40:08;;;;;;;5.00;4.60;;;25.20;59.80;;;;;;5118664;27;20599;-72
2022/07/21 08:42:35;;;;;;;5.30;4.85;;;25.20;59.70;;;;;;5136789;27;20043;-72
2022/07/21 08:45:01;;;;;;;6.13;5.53;;;25.20;59.70;;;;;;5118381;27;20077;-72
2022/07/21 08:47:26;;;;;;;5.75;5.35;;;25.20;59.70;;;;;;5118520;27;20050;-73
2022/07/21 08:49:57;;;;;;;6.35;5.88;;;25.20;59.70;;;;;;5118481;27;20039;-72
2022/07/21 08:52:22;;;;;;;;;;;25.20;59.60;;;;;;5118559;27;20043;-72
2022/07/21 08:54:48;;;;;;;5.82;5.32;;;25.20;59.60;;;;;;5136691;27;19915;-72
2022/07/21 08:57:13;;;;;;;6.18;5.70;;;25.20;59.60;;;;;;5118361;27;20081;-72
2022/07/21 08:59:39;;;;;;;5.65;5.25;;;25.20;59.60;;;;;;5118435;27;20054;-72
2022/07/21 09:02:05;;;;;;;6.30;5.80;;;25.20;59.60;;;;;;5136252;27;20072;-72
2022/07/21 09:04:33;;;;;;;6.75;6.15;;;25.20;59.60;;;;;;5117066;27;20039;-72
2022/07/21 09:07:02;;;;;;;6.97;6.28;;;25.20;59.50;;;;;;5121386;27;20506;-70
2022/07/21 09:09:30;;;;;;;7.22;6.20;;;25.20;59.60;;;;;;5116470;27;20047;-71
2022/07/21 09:11:56;;;;;;;6.55;6.05;;;25.30;60.00;;;;;;5117065;27;20095;-69
2022/07/21 09:14:25;;;;;;;7.38;6.78;;;25.30;60.20;;;;;;5107433;27;20083;-68
2022/07/21 09:19:35;;;;;;;7.28;6.68;;;25.40;60.40;;;;;;5129617;27;20398;-70
2022/07/21 09:22:06;;;;;;;7.70;7.00;;;25.50;60.20;;;;;;5128304;28;20047;-70
2022/07/21 09:24:38;;;;;;;7.65;6.95;;;25.50;60.40;;;;;;5128673;28;20031;-75
2022/07/21 09:30:00;;;;;;;9.00;7.32;;;25.50;60.30;;;;;;5127633;27;20416;-75
2022/07/21 09:35:13;;;;;;;8.10;7.30;;;25.50;60.70;;;;;;5109665;27;20757;-73
2022/07/21 09:37:39;;;;;;;9.07;6.68;;;25.50;60.40;;;;;;5107876;28;20040;-73
2022/07/21 09:40:11;;;;;;;8.07;7.30;;;25.50;60.40;;;;;;5108458;28;20039;-73
2022/07/21 09:42:42;;;;;;;9.63;7.75;;;25.50;60.50;;;;;;5108689;28;20067;-73
2022/07/21 09:45:12;;;;;;;9.45;7.78;;;25.50;60.50;;;;;;5108430;28;20032;-73
2022/07/21 09:47:39;;;;;;;8.35;7.53;;;25.50;60.50;;;;;;5109905;28;20044;-73
2022/07/21 09:50:08;;;;;;;8.43;7.63;;;25.50;60.60;;;;;;5108463;28;20071;-73
2022/07/21 09:52:37;;;;;;;8.20;7.35;;;25.50;60.60;;;;;;5108460;28;20043;-73
2022/07/21 09:57:45;;;;;;;11.25;8.25;;;25.40;60.50;;;;;;5130334;27;20405;-73
2022/07/21 10:00:15;;;;;;;9.07;7.80;;;25.40;60.50;;;;;;5128893;28;20100;-73
2022/07/21 10:02:43;;;;;;;10.88;7.40;;;25.40;60.50;;;;;;5146552;27;20441;-73
2022/07/21 10:05:12;;;;;;;8.10;7.25;;;25.40;60.50;;;;;;5128873;28;20047;-73
2022/07/21 10:07:40;;;;;;;10.88;8.07;;;25.40;60.50;;;;;;5129403;27;20126;-72
2022/07/21 10:10:07;;;;;;;8.30;7.32;;;25.30;60.40;;;;;;5128968;28;20035;-73
2022/07/21 10:12:33;;;;;;;8.38;7.55;;;25.40;60.40;;;;;;5130078;27;20038;-73
2022/07/21 10:14:59;;;;;;;9.43;8.43;;;25.30;60.30;;;;;;5128637;28;20064;-73
2022/07/21 10:17:26;;;;;;;8.07;7.28;;;25.30;60.30;;;;;;5128686;28;20114;-73
2022/07/21 10:22:52;;;;;;;7.65;6.85;;;25.30;60.30;;;;;;5130275;27;20436;-73
2022/07/21 10:25:23;;;;;;;7.57;6.88;;;25.30;60.20;;;;;;5146199;27;20051;-73
2022/07/21 10:30:54;;;;;;;8.50;7.72;;;25.30;60.20;;;;;;5089533;27;20368;-73
2022/07/21 10:33:22;;;;;;;9.52;8.50;;;25.30;60.20;;;;;;5088397;28;20147;-73
2022/07/21 10:35:51;;;;;;;8.88;8.02;;;25.30;60.20;;;;;;5089482;28;20063;-73
2022/07/21 10:38:34;;;;;;;9.00;8.07;;;25.30;60.20;;;;;;5088370;28;20042;-73
2022/07/21 10:41:02;;;;;;;8.15;7.28;;;25.30;60.10;;;;;;5087897;28;20510;-74
2022/07/21 10:46:35;;;;;;;9.02;8.13;;;25.30;60.20;;;;;;5109716;27;20911;-73
2022/07/21 10:49:01;;;;;;;8.10;7.40;;;25.30;60.10;;;;;;5091486;28;20044;-73
2022/07/21 10:51:27;;;;;;;8.80;8.10;;;25.30;60.10;;;;;;5091689;28;20038;-73
2022/07/21 10:54:17;;;;;;;8.07;7.30;;;25.30;60.20;;;;;;5090033;28;20495;-75
2022/07/21 10:56:42;;;;;;;8.63;7.78;;;25.30;60.10;;;;;;5089472;28;20122;-75
2022/07/21 10:59:08;;;;;;;8.02;7.22;;;25.30;60.20;;;;;;5089617;28;20119;-76
2022/07/21 11:01:38;;;;;;;8.45;7.50;;;25.30;60.20;;;;;;5107985;28;20059;-76
2022/07/21 11:04:21;;;;;;;8.25;7.50;;;25.30;60.30;;;;;;5089328;28;20043;-75
2022/07/21 11:06:47;;;;;;;9.50;7.68;;;25.40;60.30;;;;;;5097229;28;20039;-71
2022/07/21 11:09:15;;;;;;;7.05;6.43;;;25.40;60.40;;;;;;5090198;28;20499;-73
2022/07/21 11:14:46;;;;;;;7.95;7.25;;;25.40;60.30;;;;;;5109866;27;20105;-74
2022/07/21 11:17:28;;;;;;;7.68;6.97;;;25.50;60.30;;;;;;5108585;28;20071;-74
2022/07/21 11:19:53;;;;;;;7.70;7.10;;;25.50;60.40;;;;;;5108615;28;20036;-74
2022/07/21 11:25:03;;;;;;;8.98;7.80;;;25.50;60.20;;;;;;5129196;27;20391;-71
2022/07/21 11:27:35;;;;;;;14.32;9.18;;;25.50;60.20;;;;;;5128619;28;20566;-72
2022/07/21 11:30:05;;;;;;;7.90;7.25;;;25.50;60.60;;;;;;5128871;28;20229;-72
2022/07/21 11:32:30;;;;;;;7.93;7.05;;;25.50;60.60;;;;;;5128953;28;20054;-72
2022/07/21 11:35:01;;;;;;;10.02;7.55;;;25.50;60.50;;;;;;5163699;27;20046;-72
2022/07/21 11:40:16;;;;;;;9.57;8.20;;;25.50;60.60;;;;;;5109720;27;20431;-71
2022/07/21 11:42:44;;;;;;;7.63;6.93;;;25.50;60.60;;;;;;5091369;28;20514;-71
2022/07/21 11:45:12;;;;;;;11.02;7.78;;;25.50;60.60;;;;;;5091262;28;20040;-70
2022/07/21 11:47:38;;;;;;;9.70;7.47;;;25.50;60.60;;;;;;5091089;28;20053;-79
2022/07/21 11:50:07;;;;;;;7.53;6.72;;;25.60;60.80;;;;;;5090945;28;20039;-82
2022/07/21 11:52:36;;;;;;;8.55;7.00;;;25.60;60.70;;;;;;5091326;28;20058;-80
2022/07/21 11:55:05;;;;;;;7.80;7.20;;;25.50;61.40;;;;;;5090733;28;20540;-80
2022/07/21 11:57:30;;;;;;;9.45;7.30;;;25.60;60.70;;;;;;5109414;28;20092;-77
2022/07/21 12:00:00;;;;;;;8.73;6.88;;;25.50;60.70;;;;;;5091037;28;20457;-75
2022/07/21 12:02:29;;;;;;;7.95;7.15;;;25.50;60.70;;;;;;5091657;28;20472;-74
2022/07/21 12:04:58;;;;;;;7.60;6.93;;;25.60;61.60;;;;;;5091555;28;20059;-74
2022/07/21 12:10:21;;;;;;;7.60;6.90;;;25.50;60.80;;;;;;5129265;27;20300;-74
2022/07/21 12:12:49;;;;;;;8.13;7.13;;;25.50;60.80;;;;;;5128175;28;20035;-74
2022/07/21 12:15:27;;;;;;;8.10;6.63;;;25.50;60.80;;;;;;5129128;28;20084;-74
2022/07/21 12:17:56;;;;;;;7.43;6.43;;;25.50;60.90;;;;;;5128780;27;20048;-71
2022/07/21 12:20:26;;;;;;;8.88;7.28;;;25.50;60.90;;;;;;5128701;28;20031;-72
2022/07/21 12:22:56;;;;;;;;;;;25.60;61.40;;;;;;5129282;28;20468;-71
2022/07/21 12:25:40;;;;;;;9.05;6.45;;;25.50;62.20;;;;;;5127766;28;19916;-70
2022/07/21 12:28:07;;;;;;;7.75;7.05;;;25.50;62.70;;;;;;5129323;27;20074;-71
2022/07/21 12:30:37;;;;;;;7.45;6.72;;;25.50;62.80;;;;;;5127911;28;20043;-70
2022/07/21 12:36:08;;;;;;;9.15;6.95;;;25.60;63.60;;;;;;5129078;27;20439;-71
2022/07/21 12:38:39;;;;;;;8.57;6.70;;;25.60;64.10;;;;;;5128898;28;20057;-70
2022/07/21 12:41:05;;;;;;;7.85;7.05;;;25.70;64.10;;;;;;5129734;28;20045;-69
2022/07/21 12:43:31;;;;;;;7.68;6.65;;;25.60;64.00;;;;;;5128971;28;20043;-69
2022/07/21 12:46:00;;;;;;;12.35;7.63;;;25.70;64.40;;;;;;5129071;28;20100;-69
2022/07/21 12:48:29;;;;;;;8.27;6.15;;;25.60;64.50;;;;;;5128279;28;20046;-68
2022/07/21 12:51:20;;;;;;;8.55;5.97;;;25.60;64.50;;;;;;5128967;28;20043;-70
2022/07/21 12:53:48;;;;;;;6.93;6.25;;;25.60;64.70;;;;;;5127394;28;20038;-69
2022/07/21 12:56:16;;;;;;;7.95;5.72;;;25.70;64.70;;;;;;5128323;28;20039;-71
2022/07/21 12:58:43;;;;;;;7.20;6.50;;;25.70;64.70;;;;;;5128661;28;20155;-69
2022/07/21 13:01:09;;;;;;;7.75;5.60;;;25.70;64.70;;;;;;5128539;27;20042;-70
2022/07/21 13:03:35;;;;;;;6.43;5.80;;;25.70;64.70;;;;;;5128779;28;20118;-70
2022/07/21 13:06:03;;;;;;;6.75;5.60;;;25.70;64.60;;;;;;5128321;27;20095;-69
2022/07/21 13:08:29;;;;;;;6.95;5.45;;;25.70;64.60;;;;;;5128486;28;20054;-72
2022/07/21 13:10:55;;;;;;;6.07;5.47;;;25.70;64.40;;;;;;5128612;28;20044;-72
2022/07/21 13:13:21;;;;;;;6.43;5.70;;;25.70;64.40;;;;;;5126252;28;20036;-75
2022/07/21 13:15:47;;;;;;;9.90;5.18;;;25.70;64.10;;;;;;5126982;28;20038;-74
2022/07/21 13:18:12;;;;;;;5.80;5.30;;;25.70;64.00;;;;;;5127608;28;20675;-74
2022/07/21 13:20:38;;;;;;;6.18;4.53;;;25.60;63.90;;;;;;5145091;27;20390;-74
2022/07/21 13:23:05;;;;;;;5.03;4.53;;;25.60;63.90;;;;;;5128193;28;20056;-76
2022/07/21 13:25:31;;;;;;;6.47;5.15;;;25.60;63.90;;;;;;5129358;27;20043;-76
2022/07/21 13:27:56;;;;;;;4.60;4.20;;;25.50;63.90;;;;;;5128075;28;20050;-74
2022/07/21 13:30:22;;;;;;;5.68;5.00;;;25.50;63.90;;;;;;5127977;28;20065;-74
2022/07/21 13:32:48;;;;;;;6.63;4.53;;;25.50;63.90;;;;;;5127966;28;20123;-75